Nearby METAR Reports

 

KSJC - San Jose, California, USA
Distance from station: NE 9mi, 14km
Updated: Mon, 20-Aug-2018 6:53pm EDT
Partly cloudy
Partly cloudy
 Wind from NNW
Wind: NNW 14 mph , 22 km/h
Temperature: 75°F , 24°C
Dew Point: 57°F , 14°C
Humidity: 54%
Barometer: 29.86 inHg , 1011.2 hPa
Clouds: Partly cloudy
Visibility: 8 miles , 13 km
Cloud details: Few Clouds 100 ft
Partly cloudy 2600 ft
Partly cloudy 7000 ft
2018/08/20 22:53 KSJC 202253Z 33012KT 8SM FEW001 SCT026 SCT070 24/14 A2986 RMK AO2 SLP111 FU FEW001 FU SCT026 T02440144
KNUQ - Moffett Nas/Mtn, California, USA
Distance from station: N 9mi, 14km
Updated: Mon, 20-Aug-2018 6:56pm EDT
Clear
Clear
 Wind from NNW
Wind: NNW 13 mph , 20 km/h, Gust: 21 mph , 33 km/h
Temperature: 72°F , 22°C
Dew Point: 57°F , 14°C
Humidity: 61%
Barometer: 29.88 inHg , 1011.9 hPa
Clouds: Clear
Visibility: 9 miles , 14 km
2018/08/20 22:56 KNUQ 202256Z 34011G18KT 9SM CLR 22/14 A2988 RMK AO2 SLP119 T02170144 $
 
KPAO - Palo Alto, California, USA
Distance from station: NNW 14mi, 23km
Updated: Mon, 20-Aug-2018 7:47pm EDT
Haze, Clear
Haze, Clear
 Wind from NNW
Wind: NNW 17 mph , 28 km/h
Temperature: 72°F , 22°C
Dew Point: 59°F , 15°C
Humidity: 65%
Barometer: 29.88 inHg , 1011.9 hPa
Summary: Haze
Clouds: Clear
Visibility: 10 miles , 16 km
2018/08/20 23:47 KPAO 202347Z 33015KT 10SM HZ SKC 22/15 A2988
KRHV - San Jose/Reid, California, USA
Distance from station: ENE 12mi, 19km
Updated: Mon, 20-Aug-2018 7:47pm EDT
Clear
Clear
 Wind from NW
Wind: NW 12 mph , 19 km/h
Temperature: 79°F , 26°C
Dew Point: 57°F , 14°C
Humidity: 48%
Barometer: 29.84 inHg , 1010.5 hPa
Clouds: Clear
Visibility: 10 miles , 16 km
2018/08/20 23:47 KRHV 202347Z 32010KT 10SM SKC 26/14 A2984
 
KOAK - Oakland, California, USA
Distance from station: NNW 31mi, 50km
Updated: Mon, 20-Aug-2018 6:53pm EDT
Few Clouds
Few Clouds
 Wind from W
Wind: W 13 mph , 20 km/h
Temperature: 66°F , 19°C
Dew Point: 55°F , 13°C
Humidity: 68%
Barometer: 29.89 inHg , 1012.2 hPa
Clouds: Few Clouds
Visibility: 10 miles , 16 km
Cloud details: Few Clouds 1500 ft
Few Clouds 20000 ft
2018/08/20 22:53 KOAK 202253Z 28011KT 10SM FEW015 FEW200 19/13 A2989 RMK AO2 SLP122 T01890128
KSQL - San Carlos Airpo, California, USA
Distance from station: NW 21mi, 34km
Updated: Mon, 20-Aug-2018 6:55pm EDT
Haze, Few clouds
Haze, Few clouds
 Wind from W
Wind: W 13 mph , 20 km/h
Temperature: 72°F , 22°C
Dew Point: 55°F , 13°C
Humidity: 57%
Barometer: 29.87 inHg , 1011.5 hPa
Summary: Haze
Clouds: Few Clouds
Visibility: 7 miles , 11 km
Cloud details: Few Clouds 1500 ft
2018/08/20 22:55 KSQL 202255Z 27911KT 7SM HZ FEW015 22/13 A2987
 
KSFO - San Francisco, California, USA
Distance from station: NW 30mi, 49km
Updated: Mon, 20-Aug-2018 6:56pm EDT
Few Clouds
Few Clouds
 Wind from WSW
Wind: WSW 13 mph , 20 km/h, Gust: 23 mph , 37 km/h
Temperature: 70°F , 21°C
Dew Point: 52°F , 11°C
Humidity: 53%
Barometer: 29.88 inHg , 1011.9 hPa
Clouds: Few Clouds
Visibility: 10 miles , 16 km
Cloud details: Few Clouds 800 ft
2018/08/20 22:56 KSFO 202256Z 24011G20KT 10SM FEW008 21/11 A2988 RMK AO2 SLP119 T02110111
KE16 - San Martin, California, USA
Distance from station: ESE 27mi, 43km
Updated: Mon, 20-Aug-2018 7:30pm EDT
Clear
Clear
 Wind from S
Wind: S 12 mph , 19 km/h
Temperature: 75°F , 24°C
Dew Point: 54°F , 12°C
Humidity: 47%
Barometer: 29.89 inHg , 1012.2 hPa
Clouds: Clear
Visibility: 10 miles , 16 km
2018/08/20 23:30 KE16 202330Z AUTO 19010KT 10SM CLR 24/12 A2989 RMK AO2
 
KWVI - Watsonville, California, USA
Distance from station: SSE 27mi, 44km
Updated: Mon, 20-Aug-2018 7:39pm EDT
Mostly cloudy
Mostly cloudy
 Wind from WSW
Wind: WSW 10 mph , 17 km/h
Temperature: 63°F , 17°C
Dew Point: 55°F , 13°C
Humidity: 77%
Barometer: 29.93 inHg , 1013.5 hPa
Clouds: Mostly cloudy
Visibility: 9 miles , 14 km
Cloud details: Mostly cloudy 1300 ft
2018/08/20 23:39 KWVI 202339Z AUTO 25009KT 9SM BKN013 17/13 A2993 RMK AO2 T01670128
KHAF - Half Moon Bay, California, USA
Distance from station: WNW 31mi, 50km
Updated: Mon, 20-Aug-2018 7:40pm EDT
Mist, Overcast
Mist, Overcast
 Wind from SSW
Wind: SSW 8 mph , 13 km/h
Temperature: 59°F , 15°C
Dew Point: 55°F , 13°C
Humidity: 88%
Barometer: 29.94 inHg , 1013.9 hPa
Summary: Mist
Clouds: Overcast
Visibility: 5 miles , 8 km
Cloud details: Overcast 1100 ft
2018/08/20 23:40 KHAF 202340Z AUTO 20007KT 5SM BR OVC011 15/13 A2994 RMK AO2
 
KHWD - Hayward, California, USA
Distance from station: N 28mi, 44km
Updated: Mon, 20-Aug-2018 6:54pm EDT
Clear
Clear
 Wind from WNW
Wind: WNW 13 mph , 20 km/h
Temperature: 70°F , 21°C
Dew Point: 54°F , 12°C
Humidity: 57%
Barometer: 29.89 inHg , 1012.2 hPa
Clouds: Clear
Visibility: 9 miles , 14 km
2018/08/20 22:54 KHWD 202254Z 30011KT 9SM CLR 21/12 A2989 RMK AO2 SLP130 T02110122
KLVK - Livermore, California, USA
Distance from station: NNE 31mi, 51km
Updated: Mon, 20-Aug-2018 6:53pm EDT
Smoke, Clear
Smoke, Clear
 Wind from WNW
Wind: WNW 13 mph , 20 km/h
Temperature: 79°F , 26°C
Dew Point: 55°F , 13°C
Humidity: 45%
Barometer: 29.84 inHg , 1010.5 hPa
Summary: Smoke
Clouds: Clear
Visibility: 9 miles , 14 km
2018/08/20 22:53 KLVK 202253Z 30011KT 9SM FU CLR 26/13 A2984 RMK AO2 SLP100 T02610128